createdAt,value
2022-07-25T00:01:20.731Z,4.97
2022-07-25T00:06:51.957Z,4.90
2022-07-25T00:12:24.090Z,4.93
2022-07-25T00:17:55.252Z,4.72
2022-07-25T00:23:26.112Z,5.38
2022-07-25T00:28:57.153Z,4.38
2022-07-25T00:34:28.144Z,4.80
2022-07-25T00:39:58.932Z,5.18
2022-07-25T00:45:30.632Z,4.72
2022-07-25T00:51:01.751Z,4.68
2022-07-25T00:56:33.696Z,4.75
2022-07-25T01:02:04.826Z,5.13
2022-07-25T01:07:37.608Z,4.85
2022-07-25T01:13:08.672Z,4.72
2022-07-25T01:18:39.873Z,4.78
2022-07-25T01:24:13.799Z,4.70
2022-07-25T01:29:45.012Z,4.50
2022-07-25T01:35:16.068Z,4.68
2022-07-25T01:40:47.263Z,4.28
2022-07-25T01:46:18.609Z,4.80
2022-07-25T01:51:50.117Z,4.97
2022-07-25T01:57:21.041Z,4.60
2022-07-25T02:03:13.801Z,4.65
2022-07-25T02:08:45.013Z,4.65
2022-07-25T02:14:15.848Z,4.63
2022-07-25T02:19:46.692Z,5.32
2022-07-25T02:25:17.610Z,4.60
2022-07-25T02:30:48.818Z,4.82
2022-07-25T02:36:20.230Z,4.65
2022-07-25T02:41:51.596Z,4.38
2022-07-25T02:47:23.832Z,4.82
2022-07-25T02:52:54.741Z,4.75
2022-07-25T02:58:25.726Z,4.70
2022-07-25T03:03:57.514Z,4.50
2022-07-25T03:09:44.501Z,4.67
2022-07-25T03:15:15.605Z,4.93
2022-07-25T03:20:46.871Z,5.53
2022-07-25T03:26:17.799Z,4.68
2022-07-25T03:31:49.096Z,4.85
2022-07-25T03:37:20.527Z,4.38
2022-07-25T03:42:51.679Z,4.15
2022-07-25T03:48:22.816Z,4.45
2022-07-25T03:54:03.231Z,4.28
2022-07-25T03:59:34.743Z,4.53
2022-07-25T04:05:07.480Z,4.50
2022-07-25T04:10:38.733Z,4.72
2022-07-25T04:16:14.588Z,4.25
2022-07-25T04:21:49.375Z,4.35
2022-07-25T04:27:20.105Z,3.97
2022-07-25T04:32:50.911Z,4.63
2022-07-25T04:38:21.831Z,4.15
2022-07-25T04:43:53.077Z,5.35
2022-07-25T04:49:24.399Z,4.55
2022-07-25T04:54:55.544Z,4.60
2022-07-25T05:00:26.836Z,4.55
2022-07-25T05:05:57.865Z,4.38
2022-07-25T05:11:29.226Z,4.55
2022-07-25T05:17:00.677Z,4.53
2022-07-25T05:22:32.380Z,4.25
2022-07-25T05:28:03.771Z,4.47
2022-07-25T05:33:35.265Z,4.03
2022-07-25T05:39:06.525Z,4.57
2022-07-25T05:44:37.950Z,7.13
2022-07-25T05:50:09.536Z,5.97
2022-07-25T05:55:40.882Z,5.90
2022-07-25T06:01:13.278Z,6.22
2022-07-25T06:06:51.068Z,5.03
2022-07-25T06:12:24.286Z,5.03
2022-07-25T06:17:55.716Z,5.05
2022-07-25T06:23:27.965Z,5.27
2022-07-25T06:28:59.096Z,5.13
2022-07-25T06:34:30.218Z,4.78
2022-07-25T06:40:01.360Z,4.40
2022-07-25T06:45:32.588Z,4.03
2022-07-25T06:51:04.733Z,3.80
2022-07-25T06:56:35.733Z,3.38
2022-07-25T07:02:06.869Z,3.70
2022-07-25T07:07:37.993Z,3.10
2022-07-25T07:13:14.236Z,3.25
2022-07-25T07:18:49.170Z,3.60
2022-07-25T07:24:24.227Z,3.60
2022-07-25T07:29:55.665Z,3.45
2022-07-25T07:35:27.515Z,4.00
2022-07-25T07:40:59.177Z,3.13
2022-07-25T07:46:30.170Z,4.03
2022-07-25T07:52:01.264Z,4.35
2022-07-25T07:57:32.424Z,4.70
2022-07-25T08:03:03.999Z,3.50
2022-07-25T08:08:34.921Z,3.20
2022-07-25T08:14:07.639Z,3.50
2022-07-25T08:19:38.933Z,3.55
2022-07-25T08:25:10.984Z,3.20
2022-07-25T08:30:42.952Z,3.75
2022-07-25T08:36:14.308Z,3.47
2022-07-25T08:41:46.052Z,4.07
2022-07-25T08:47:18.401Z,3.70
2022-07-25T08:52:50.367Z,3.65
2022-07-25T08:58:21.269Z,3.70
2022-07-25T09:03:52.420Z,3.95
2022-07-25T09:09:34.797Z,4.22
2022-07-25T09:15:06.972Z,3.90
2022-07-25T09:20:43.772Z,4.00
2022-07-25T09:26:15.502Z,3.80
2022-07-25T09:31:46.505Z,4.17
2022-07-25T09:37:20.563Z,4.38
2022-07-25T09:42:52.678Z,3.83
2022-07-25T09:48:23.974Z,4.00
2022-07-25T09:53:55.201Z,4.57
2022-07-25T09:59:26.386Z,3.87
2022-07-25T10:04:57.480Z,4.57
2022-07-25T10:10:37.816Z,4.00
2022-07-25T10:16:34.996Z,4.63
2022-07-25T10:22:05.819Z,4.45
2022-07-25T10:27:43.902Z,4.10
2022-07-25T10:33:18.905Z,4.75
2022-07-25T10:38:57.569Z,4.57
2022-07-25T10:44:40.425Z,4.35
2022-07-25T10:56:09.827Z,4.45
2022-07-25T11:01:42.782Z,4.40
2022-07-25T11:07:17.920Z,4.50
2022-07-25T11:12:49.337Z,4.25
2022-07-25T11:18:40.481Z,5.03
2022-07-25T11:24:11.679Z,4.35
2022-07-25T11:29:42.588Z,4.28
2022-07-25T11:35:15.717Z,4.25
2022-07-25T11:40:47.137Z,4.30
2022-07-25T11:46:18.713Z,4.70
2022-07-25T11:51:50.069Z,4.43
2022-07-25T11:57:26.473Z,4.07
2022-07-25T12:03:08.605Z,4.32
2022-07-25T12:08:42.272Z,4.60
2022-07-25T12:14:14.491Z,4.88
2022-07-25T12:19:47.488Z,4.53
2022-07-25T12:25:18.939Z,4.70
2022-07-25T12:30:55.951Z,4.45
2022-07-25T12:36:27.819Z,4.82
2022-07-25T12:41:59.032Z,4.10
2022-07-25T12:47:30.232Z,4.70
2022-07-25T12:53:02.111Z,4.70
2022-07-25T12:58:33.205Z,4.57
2022-07-25T13:04:07.376Z,4.20
2022-07-25T13:09:38.562Z,4.07
2022-07-25T13:15:10.021Z,5.13
2022-07-25T13:20:41.494Z,5.10
2022-07-25T13:26:12.851Z,4.85
2022-07-25T13:31:44.185Z,4.80
2022-07-25T13:37:15.697Z,5.20
2022-07-25T13:42:46.981Z,4.90
2022-07-25T13:48:33.197Z,4.57
2022-07-25T13:54:04.555Z,4.53
2022-07-25T13:59:36.666Z,4.63
2022-07-25T14:10:38.858Z,4.32
2022-07-25T14:16:09.885Z,4.68
2022-07-25T14:21:41.422Z,4.55
2022-07-25T14:27:12.971Z,4.72
2022-07-25T14:32:44.415Z,5.03
2022-07-25T14:38:15.822Z,4.60
2022-07-25T14:43:47.095Z,5.15
2022-07-25T14:49:18.766Z,5.47
2022-07-25T15:00:23.761Z,5.82
2022-07-25T15:05:59.256Z,5.38
2022-07-25T15:11:30.873Z,5.30
2022-07-25T15:17:02.162Z,5.13
2022-07-25T15:22:33.760Z,5.45
2022-07-25T15:33:36.194Z,5.50
2022-07-25T15:39:08.566Z,5.30
2022-07-25T15:44:40.092Z,5.13
2022-07-25T15:50:11.018Z,5.80
2022-07-25T15:55:42.597Z,5.10
2022-07-25T16:01:14.337Z,5.65
2022-07-25T16:06:45.527Z,5.07
2022-07-25T16:12:16.777Z,4.82
2022-07-25T16:17:49.870Z,4.72
2022-07-25T16:23:20.992Z,5.65
2022-07-25T16:28:57.659Z,5.85
2022-07-25T16:34:29.326Z,5.10
2022-07-25T16:40:01.013Z,5.43
2022-07-25T16:45:32.172Z,5.63
2022-07-25T16:51:03.061Z,6.30
2022-07-25T16:56:34.070Z,6.13
2022-07-25T17:02:05.545Z,5.60
2022-07-25T17:07:39.055Z,5.40
2022-07-25T17:13:11.130Z,5.65
2022-07-25T17:18:43.030Z,5.47
2022-07-25T17:24:14.164Z,5.60
2022-07-25T17:29:46.041Z,6.05
2022-07-25T17:35:19.251Z,5.78
2022-07-25T17:40:50.639Z,5.55
2022-07-25T17:46:25.716Z,5.88
2022-07-25T17:51:57.548Z,5.78
2022-07-25T17:57:28.820Z,6.60
2022-07-25T18:03:00.344Z,6.40
2022-07-25T18:08:35.667Z,6.28
2022-07-25T18:14:07.448Z,6.50
2022-07-25T18:25:12.250Z,6.95
2022-07-25T18:30:43.956Z,6.75
2022-07-25T18:36:15.300Z,7.78
2022-07-25T18:41:46.680Z,7.45
2022-07-25T18:47:17.873Z,7.93
2022-07-25T18:58:20.293Z,7.68
2022-07-25T19:03:51.971Z,7.60
2022-07-25T19:09:23.913Z,7.38
2022-07-25T19:14:55.879Z,7.20
2022-07-25T19:20:27.378Z,7.32
2022-07-25T19:25:58.726Z,7.45
2022-07-25T19:31:30.080Z,7.05
2022-07-25T19:37:01.457Z,7.70
2022-07-25T19:42:33.352Z,7.63
2022-07-25T19:48:05.325Z,7.60
2022-07-25T19:53:36.810Z,7.40
2022-07-25T19:59:07.608Z,7.57
2022-07-25T20:04:38.387Z,7.13
2022-07-25T20:10:10.459Z,7.57
2022-07-25T20:15:41.948Z,6.93
2022-07-25T20:21:12.962Z,7.40
2022-07-25T20:26:44.131Z,6.83
2022-07-25T20:32:15.446Z,7.13
2022-07-25T20:37:46.891Z,8.10
2022-07-25T20:43:18.825Z,7.53
2022-07-25T20:48:50.164Z,7.35
2022-07-25T20:54:21.171Z,8.00
2022-07-25T20:59:52.836Z,6.38
2022-07-25T21:05:24.709Z,7.30
2022-07-25T21:10:56.005Z,7.80
2022-07-25T21:16:27.494Z,6.90
2022-07-25T21:21:58.689Z,7.05
2022-07-25T21:27:29.789Z,6.85
2022-07-25T21:33:02.178Z,6.93
2022-07-25T21:38:38.409Z,6.85
2022-07-25T21:44:10.372Z,6.82
2022-07-25T21:50:00.098Z,6.22
2022-07-25T21:55:31.203Z,6.72
2022-07-25T22:01:02.313Z,7.20
2022-07-25T22:06:33.486Z,6.33
2022-07-25T22:12:07.059Z,7.05
2022-07-25T22:17:48.361Z,6.95
2022-07-25T22:23:20.741Z,6.03
2022-07-25T22:28:51.509Z,7.10
2022-07-25T22:34:22.679Z,6.55
2022-07-25T22:39:57.712Z,6.68
2022-07-25T22:45:31.938Z,6.32
2022-07-25T22:51:03.443Z,7.07
2022-07-25T22:56:34.550Z,7.05
2022-07-25T23:02:05.664Z,6.30
2022-07-25T23:07:36.825Z,6.63
2022-07-25T23:13:07.873Z,6.40
2022-07-25T23:18:38.932Z,5.97
2022-07-25T23:24:10.345Z,6.77
2022-07-25T23:29:41.775Z,6.50
2022-07-25T23:35:13.381Z,6.13
2022-07-25T23:40:44.399Z,6.47
2022-07-25T23:46:15.198Z,5.72
2022-07-25T23:51:47.735Z,5.60
2022-07-25T23:57:19.004Z,4.40
